sensor_id;sensor_type;location;lat;lon;timestamp;P1;durP1;ratioP1;P2;durP2;ratioP2
28335;SDS011;15592;53.656;7.276;2023-08-31T00:02:21;7.45;;;1.40;;
28335;SDS011;15592;53.656;7.276;2023-08-31T00:04:47;1.42;;;1.15;;
28335;SDS011;15592;53.656;7.276;2023-08-31T00:07:12;1.95;;;1.00;;
28335;SDS011;15592;53.656;7.276;2023-08-31T00:09:38;3.22;;;0.90;;
28335;SDS011;15592;53.656;7.276;2023-08-31T00:12:04;2.15;;;1.10;;
28335;SDS011;15592;53.656;7.276;2023-08-31T00:14:30;1.92;;;1.20;;
28335;SDS011;15592;53.656;7.276;2023-08-31T00:16:57;1.40;;;1.20;;
28335;SDS011;15592;53.656;7.276;2023-08-31T00:19:23;1.85;;;1.25;;
28335;SDS011;15592;53.656;7.276;2023-08-31T00:21:49;3.72;;;1.35;;
28335;SDS011;15592;53.656;7.276;2023-08-31T00:24:15;1.58;;;1.38;;
28335;SDS011;15592;53.656;7.276;2023-08-31T00:26:41;3.40;;;1.80;;
28335;SDS011;15592;53.656;7.276;2023-08-31T00:29:09;3.00;;;1.40;;
28335;SDS011;15592;53.656;7.276;2023-08-31T00:31:36;3.15;;;1.50;;
28335;SDS011;15592;53.656;7.276;2023-08-31T00:34:02;2.47;;;1.60;;
28335;SDS011;15592;53.656;7.276;2023-08-31T00:36:29;4.75;;;1.73;;
28335;SDS011;15592;53.656;7.276;2023-08-31T00:38:58;4.13;;;1.70;;
28335;SDS011;15592;53.656;7.276;2023-08-31T00:41:31;5.05;;;1.73;;
28335;SDS011;15592;53.656;7.276;2023-08-31T00:43:57;4.97;;;2.17;;
28335;SDS011;15592;53.656;7.276;2023-08-31T00:46:23;5.18;;;1.92;;
28335;SDS011;15592;53.656;7.276;2023-08-31T00:48:49;5.38;;;1.85;;
28335;SDS011;15592;53.656;7.276;2023-08-31T00:51:15;3.80;;;2.17;;
28335;SDS011;15592;53.656;7.276;2023-08-31T00:53:40;5.18;;;1.77;;
28335;SDS011;15592;53.656;7.276;2023-08-31T00:56:07;2.60;;;1.65;;
28335;SDS011;15592;53.656;7.276;2023-08-31T00:58:33;2.83;;;1.70;;
28335;SDS011;15592;53.656;7.276;2023-08-31T01:03:52;2.67;;;1.50;;
28335;SDS011;15592;53.656;7.276;2023-08-31T01:09:38;2.85;;;1.40;;
28335;SDS011;15592;53.656;7.276;2023-08-31T01:15:12;1.92;;;1.40;;
28335;SDS011;15592;53.656;7.276;2023-08-31T01:17:41;4.53;;;1.30;;
28335;SDS011;15592;53.656;7.276;2023-08-31T01:20:47;2.10;;;1.20;;
28335;SDS011;15592;53.656;7.276;2023-08-31T01:23:18;2.03;;;1.27;;
28335;SDS011;15592;53.656;7.276;2023-08-31T01:25:45;4.03;;;1.55;;
28335;SDS011;15592;53.656;7.276;2023-08-31T01:28:13;4.30;;;1.38;;
28335;SDS011;15592;53.656;7.276;2023-08-31T01:30:39;2.65;;;1.42;;
28335;SDS011;15592;53.656;7.276;2023-08-31T01:33:05;5.65;;;1.70;;
28335;SDS011;15592;53.656;7.276;2023-08-31T01:35:32;2.70;;;1.27;;
28335;SDS011;15592;53.656;7.276;2023-08-31T01:38:06;1.95;;;1.10;;
28335;SDS011;15592;53.656;7.276;2023-08-31T01:43:08;3.72;;;1.30;;
28335;SDS011;15592;53.656;7.276;2023-08-31T01:45:36;3.05;;;1.55;;
28335;SDS011;15592;53.656;7.276;2023-08-31T01:48:03;3.63;;;1.42;;
28335;SDS011;15592;53.656;7.276;2023-08-31T01:50:29;2.75;;;1.42;;
28335;SDS011;15592;53.656;7.276;2023-08-31T01:52:55;4.47;;;1.50;;
28335;SDS011;15592;53.656;7.276;2023-08-31T01:55:21;4.10;;;1.70;;
28335;SDS011;15592;53.656;7.276;2023-08-31T01:57:47;3.15;;;1.52;;
28335;SDS011;15592;53.656;7.276;2023-08-31T02:00:13;5.43;;;1.60;;
28335;SDS011;15592;53.656;7.276;2023-08-31T02:02:41;3.22;;;1.27;;
28335;SDS011;15592;53.656;7.276;2023-08-31T02:05:07;3.45;;;1.30;;
28335;SDS011;15592;53.656;7.276;2023-08-31T02:07:33;3.50;;;1.52;;
28335;SDS011;15592;53.656;7.276;2023-08-31T02:09:59;2.13;;;1.33;;
28335;SDS011;15592;53.656;7.276;2023-08-31T02:12:24;2.88;;;1.33;;
28335;SDS011;15592;53.656;7.276;2023-08-31T02:14:50;3.17;;;1.40;;
28335;SDS011;15592;53.656;7.276;2023-08-31T02:17:16;4.28;;;1.30;;
28335;SDS011;15592;53.656;7.276;2023-08-31T02:19:41;3.20;;;1.40;;
28335;SDS011;15592;53.656;7.276;2023-08-31T02:22:07;2.35;;;1.13;;
28335;SDS011;15592;53.656;7.276;2023-08-31T02:24:33;3.75;;;1.30;;
28335;SDS011;15592;53.656;7.276;2023-08-31T02:26:59;3.90;;;1.08;;
28335;SDS011;15592;53.656;7.276;2023-08-31T02:29:24;3.58;;;1.30;;
28335;SDS011;15592;53.656;7.276;2023-08-31T02:31:50;2.58;;;1.30;;
28335;SDS011;15592;53.656;7.276;2023-08-31T02:34:15;3.78;;;1.20;;
28335;SDS011;15592;53.656;7.276;2023-08-31T02:36:41;2.13;;;1.20;;
28335;SDS011;15592;53.656;7.276;2023-08-31T02:39:07;1.33;;;0.93;;
28335;SDS011;15592;53.656;7.276;2023-08-31T02:41:32;5.43;;;1.30;;
28335;SDS011;15592;53.656;7.276;2023-08-31T02:43:58;1.73;;;1.15;;
28335;SDS011;15592;53.656;7.276;2023-08-31T02:46:23;2.13;;;0.88;;
28335;SDS011;15592;53.656;7.276;2023-08-31T02:48:49;3.05;;;1.27;;
28335;SDS011;15592;53.656;7.276;2023-08-31T02:51:15;1.90;;;1.20;;
28335;SDS011;15592;53.656;7.276;2023-08-31T02:53:41;3.47;;;1.30;;
28335;SDS011;15592;53.656;7.276;2023-08-31T02:56:07;1.67;;;1.20;;
28335;SDS011;15592;53.656;7.276;2023-08-31T02:58:32;3.53;;;1.17;;
28335;SDS011;15592;53.656;7.276;2023-08-31T03:01:11;3.08;;;1.20;;
28335;SDS011;15592;53.656;7.276;2023-08-31T03:03:37;2.05;;;1.40;;
28335;SDS011;15592;53.656;7.276;2023-08-31T03:06:05;3.47;;;1.05;;
28335;SDS011;15592;53.656;7.276;2023-08-31T03:08:32;2.85;;;1.10;;
28335;SDS011;15592;53.656;7.276;2023-08-31T03:10:58;2.00;;;1.40;;
28335;SDS011;15592;53.656;7.276;2023-08-31T03:13:24;2.30;;;1.40;;
28335;SDS011;15592;53.656;7.276;2023-08-31T03:15:50;1.85;;;1.30;;
28335;SDS011;15592;53.656;7.276;2023-08-31T03:18:15;4.30;;;1.80;;
28335;SDS011;15592;53.656;7.276;2023-08-31T03:20:41;4.07;;;1.80;;
28335;SDS011;15592;53.656;7.276;2023-08-31T03:23:07;2.05;;;1.50;;
28335;SDS011;15592;53.656;7.276;2023-08-31T03:25:34;4.25;;;1.83;;
28335;SDS011;15592;53.656;7.276;2023-08-31T03:28:00;2.28;;;1.48;;
28335;SDS011;15592;53.656;7.276;2023-08-31T03:30:25;2.55;;;1.40;;
28335;SDS011;15592;53.656;7.276;2023-08-31T03:32:51;2.08;;;1.30;;
28335;SDS011;15592;53.656;7.276;2023-08-31T03:35:16;2.83;;;1.42;;
28335;SDS011;15592;53.656;7.276;2023-08-31T03:37:42;5.75;;;1.60;;
28335;SDS011;15592;53.656;7.276;2023-08-31T03:40:08;2.80;;;1.45;;
28335;SDS011;15592;53.656;7.276;2023-08-31T03:42:34;3.22;;;1.63;;
28335;SDS011;15592;53.656;7.276;2023-08-31T03:45:00;1.33;;;1.05;;
28335;SDS011;15592;53.656;7.276;2023-08-31T03:47:26;2.20;;;1.42;;
28335;SDS011;15592;53.656;7.276;2023-08-31T03:49:52;1.88;;;1.30;;
28335;SDS011;15592;53.656;7.276;2023-08-31T03:52:18;2.97;;;1.25;;
28335;SDS011;15592;53.656;7.276;2023-08-31T03:54:44;1.23;;;0.95;;
28335;SDS011;15592;53.656;7.276;2023-08-31T03:57:10;1.75;;;1.35;;
28335;SDS011;15592;53.656;7.276;2023-08-31T03:59:35;2.85;;;1.40;;
28335;SDS011;15592;53.656;7.276;2023-08-31T04:02:01;1.98;;;1.17;;
28335;SDS011;15592;53.656;7.276;2023-08-31T04:04:27;2.22;;;1.20;;
28335;SDS011;15592;53.656;7.276;2023-08-31T04:06:52;6.38;;;1.80;;
28335;SDS011;15592;53.656;7.276;2023-08-31T04:09:18;2.53;;;1.35;;
28335;SDS011;15592;53.656;7.276;2023-08-31T04:11:44;2.05;;;1.10;;
28335;SDS011;15592;53.656;7.276;2023-08-31T04:14:09;1.65;;;1.20;;
28335;SDS011;15592;53.656;7.276;2023-08-31T04:16:35;3.25;;;1.30;;
28335;SDS011;15592;53.656;7.276;2023-08-31T04:19:01;3.25;;;1.65;;
28335;SDS011;15592;53.656;7.276;2023-08-31T04:21:26;2.40;;;1.30;;
28335;SDS011;15592;53.656;7.276;2023-08-31T04:23:52;2.55;;;1.50;;
28335;SDS011;15592;53.656;7.276;2023-08-31T04:26:17;2.42;;;1.30;;
28335;SDS011;15592;53.656;7.276;2023-08-31T04:28:43;2.80;;;1.65;;
28335;SDS011;15592;53.656;7.276;2023-08-31T04:31:09;1.88;;;1.20;;
28335;SDS011;15592;53.656;7.276;2023-08-31T04:33:35;1.77;;;1.10;;
28335;SDS011;15592;53.656;7.276;2023-08-31T04:36:02;2.13;;;1.42;;
28335;SDS011;15592;53.656;7.276;2023-08-31T04:38:29;2.35;;;1.52;;
28335;SDS011;15592;53.656;7.276;2023-08-31T04:40:58;2.38;;;1.48;;
28335;SDS011;15592;53.656;7.276;2023-08-31T04:43:24;2.95;;;1.70;;
28335;SDS011;15592;53.656;7.276;2023-08-31T04:45:51;2.40;;;1.50;;
28335;SDS011;15592;53.656;7.276;2023-08-31T04:48:17;3.97;;;1.40;;
28335;SDS011;15592;53.656;7.276;2023-08-31T04:50:43;5.03;;;1.30;;
28335;SDS011;15592;53.656;7.276;2023-08-31T04:53:08;2.60;;;1.30;;
28335;SDS011;15592;53.656;7.276;2023-08-31T04:55:34;1.90;;;1.25;;
28335;SDS011;15592;53.656;7.276;2023-08-31T04:57:59;3.38;;;1.40;;
28335;SDS011;15592;53.656;7.276;2023-08-31T05:00:25;3.47;;;1.40;;
28335;SDS011;15592;53.656;7.276;2023-08-31T05:02:51;1.85;;;1.45;;
28335;SDS011;15592;53.656;7.276;2023-08-31T05:05:16;1.75;;;1.20;;
28335;SDS011;15592;53.656;7.276;2023-08-31T05:07:43;2.58;;;1.98;;
28335;SDS011;15592;53.656;7.276;2023-08-31T05:10:09;4.45;;;1.98;;
28335;SDS011;15592;53.656;7.276;2023-08-31T05:12:35;2.75;;;1.48;;
28335;SDS011;15592;53.656;7.276;2023-08-31T05:15:00;3.88;;;1.40;;
28335;SDS011;15592;53.656;7.276;2023-08-31T05:17:26;3.33;;;1.42;;
28335;SDS011;15592;53.656;7.276;2023-08-31T05:19:52;2.72;;;1.45;;
28335;SDS011;15592;53.656;7.276;2023-08-31T05:22:17;1.70;;;1.35;;
28335;SDS011;15592;53.656;7.276;2023-08-31T05:24:43;2.67;;;1.50;;
28335;SDS011;15592;53.656;7.276;2023-08-31T05:27:08;2.38;;;1.30;;
28335;SDS011;15592;53.656;7.276;2023-08-31T05:29:34;1.92;;;1.30;;
28335;SDS011;15592;53.656;7.276;2023-08-31T05:32:00;2.22;;;1.25;;
28335;SDS011;15592;53.656;7.276;2023-08-31T05:34:26;3.03;;;1.42;;
28335;SDS011;15592;53.656;7.276;2023-08-31T05:36:51;1.67;;;1.25;;
28335;SDS011;15592;53.656;7.276;2023-08-31T05:39:17;2.30;;;1.17;;
28335;SDS011;15592;53.656;7.276;2023-08-31T05:41:43;2.33;;;1.40;;
28335;SDS011;15592;53.656;7.276;2023-08-31T05:44:09;3.42;;;1.35;;
28335;SDS011;15592;53.656;7.276;2023-08-31T05:46:35;2.28;;;1.35;;
28335;SDS011;15592;53.656;7.276;2023-08-31T05:49:03;1.40;;;1.30;;
28335;SDS011;15592;53.656;7.276;2023-08-31T05:51:29;2.88;;;1.65;;
28335;SDS011;15592;53.656;7.276;2023-08-31T05:53:54;3.88;;;1.70;;
28335;SDS011;15592;53.656;7.276;2023-08-31T05:56:20;2.17;;;1.48;;
28335;SDS011;15592;53.656;7.276;2023-08-31T05:58:46;1.92;;;1.23;;
28335;SDS011;15592;53.656;7.276;2023-08-31T06:01:12;1.48;;;1.38;;
28335;SDS011;15592;53.656;7.276;2023-08-31T06:03:38;1.80;;;1.33;;
28335;SDS011;15592;53.656;7.276;2023-08-31T06:06:03;1.98;;;1.48;;
28335;SDS011;15592;53.656;7.276;2023-08-31T06:08:29;2.10;;;1.48;;
28335;SDS011;15592;53.656;7.276;2023-08-31T06:10:55;3.28;;;1.30;;
28335;SDS011;15592;53.656;7.276;2023-08-31T06:13:21;2.53;;;1.27;;
28335;SDS011;15592;53.656;7.276;2023-08-31T06:15:47;2.50;;;1.30;;
28335;SDS011;15592;53.656;7.276;2023-08-31T06:18:13;1.88;;;1.50;;
28335;SDS011;15592;53.656;7.276;2023-08-31T06:20:38;1.92;;;1.30;;
28335;SDS011;15592;53.656;7.276;2023-08-31T06:23:04;2.28;;;1.45;;
28335;SDS011;15592;53.656;7.276;2023-08-31T06:25:30;2.47;;;1.40;;
28335;SDS011;15592;53.656;7.276;2023-08-31T06:27:56;2.60;;;1.45;;
28335;SDS011;15592;53.656;7.276;2023-08-31T06:30:23;2.05;;;1.50;;
28335;SDS011;15592;53.656;7.276;2023-08-31T06:32:49;2.47;;;1.60;;
28335;SDS011;15592;53.656;7.276;2023-08-31T06:35:15;2.85;;;1.48;;
28335;SDS011;15592;53.656;7.276;2023-08-31T06:37:41;1.80;;;1.38;;
28335;SDS011;15592;53.656;7.276;2023-08-31T06:40:07;3.10;;;1.60;;
28335;SDS011;15592;53.656;7.276;2023-08-31T06:42:34;2.25;;;1.58;;
28335;SDS011;15592;53.656;7.276;2023-08-31T06:45:01;2.33;;;1.67;;
28335;SDS011;15592;53.656;7.276;2023-08-31T06:47:27;3.13;;;1.70;;
28335;SDS011;15592;53.656;7.276;2023-08-31T06:49:53;4.45;;;1.40;;
28335;SDS011;15592;53.656;7.276;2023-08-31T06:52:19;2.03;;;1.77;;
28335;SDS011;15592;53.656;7.276;2023-08-31T06:54:44;3.08;;;1.55;;
28335;SDS011;15592;53.656;7.276;2023-08-31T06:57:10;3.53;;;1.80;;
28335;SDS011;15592;53.656;7.276;2023-08-31T06:59:36;2.13;;;1.73;;
28335;SDS011;15592;53.656;7.276;2023-08-31T07:02:01;2.50;;;1.70;;
28335;SDS011;15592;53.656;7.276;2023-08-31T07:04:27;2.95;;;1.90;;
28335;SDS011;15592;53.656;7.276;2023-08-31T07:06:53;2.53;;;1.67;;
28335;SDS011;15592;53.656;7.276;2023-08-31T07:09:18;1.88;;;1.65;;
28335;SDS011;15592;53.656;7.276;2023-08-31T07:11:44;3.72;;;1.95;;
28335;SDS011;15592;53.656;7.276;2023-08-31T07:14:10;2.95;;;1.67;;
28335;SDS011;15592;53.656;7.276;2023-08-31T07:16:35;3.30;;;1.80;;
28335;SDS011;15592;53.656;7.276;2023-08-31T07:19:01;1.90;;;1.70;;
28335;SDS011;15592;53.656;7.276;2023-08-31T07:21:27;7.43;;;2.03;;
28335;SDS011;15592;53.656;7.276;2023-08-31T07:23:53;4.18;;;1.98;;
28335;SDS011;15592;53.656;7.276;2023-08-31T07:26:19;2.95;;;1.77;;
28335;SDS011;15592;53.656;7.276;2023-08-31T07:28:46;4.40;;;2.20;;
28335;SDS011;15592;53.656;7.276;2023-08-31T07:31:12;3.00;;;1.88;;
28335;SDS011;15592;53.656;7.276;2023-08-31T07:33:37;2.90;;;2.20;;
28335;SDS011;15592;53.656;7.276;2023-08-31T07:36:03;2.35;;;1.92;;
28335;SDS011;15592;53.656;7.276;2023-08-31T07:38:30;4.90;;;1.90;;
28335;SDS011;15592;53.656;7.276;2023-08-31T07:40:56;2.58;;;1.83;;
28335;SDS011;15592;53.656;7.276;2023-08-31T07:43:22;2.35;;;1.90;;
28335;SDS011;15592;53.656;7.276;2023-08-31T07:45:48;3.47;;;2.55;;
28335;SDS011;15592;53.656;7.276;2023-08-31T07:48:14;4.85;;;2.78;;
28335;SDS011;15592;53.656;7.276;2023-08-31T07:50:43;4.65;;;2.95;;
28335;SDS011;15592;53.656;7.276;2023-08-31T07:53:08;5.15;;;2.92;;
28335;SDS011;15592;53.656;7.276;2023-08-31T07:55:34;8.38;;;3.20;;
28335;SDS011;15592;53.656;7.276;2023-08-31T07:58:02;4.28;;;3.30;;
28335;SDS011;15592;53.656;7.276;2023-08-31T08:00:28;5.75;;;3.40;;
28335;SDS011;15592;53.656;7.276;2023-08-31T08:02:54;5.60;;;2.85;;
28335;SDS011;15592;53.656;7.276;2023-08-31T08:05:19;4.85;;;3.42;;
28335;SDS011;15592;53.656;7.276;2023-08-31T08:07:45;4.97;;;2.88;;
28335;SDS011;15592;53.656;7.276;2023-08-31T08:10:11;5.82;;;2.97;;
28335;SDS011;15592;53.656;7.276;2023-08-31T08:12:41;5.30;;;2.50;;
28335;SDS011;15592;53.656;7.276;2023-08-31T08:15:11;3.28;;;2.10;;
28335;SDS011;15592;53.656;7.276;2023-08-31T08:17:37;2.38;;;2.00;;
28335;SDS011;15592;53.656;7.276;2023-08-31T08:23:27;2.72;;;2.10;;
28335;SDS011;15592;53.656;7.276;2023-08-31T08:25:52;6.32;;;2.30;;
28335;SDS011;15592;53.656;7.276;2023-08-31T08:28:18;2.70;;;1.98;;
28335;SDS011;15592;53.656;7.276;2023-08-31T08:30:43;6.57;;;2.72;;
28335;SDS011;15592;53.656;7.276;2023-08-31T08:33:09;2.00;;;1.80;;
28335;SDS011;15592;53.656;7.276;2023-08-31T08:35:42;3.47;;;2.10;;
28335;SDS011;15592;53.656;7.276;2023-08-31T08:38:08;6.15;;;2.22;;
28335;SDS011;15592;53.656;7.276;2023-08-31T08:40:34;2.95;;;1.90;;
28335;SDS011;15592;53.656;7.276;2023-08-31T08:43:00;6.43;;;2.45;;
28335;SDS011;15592;53.656;7.276;2023-08-31T08:45:28;3.60;;;2.10;;
28335;SDS011;15592;53.656;7.276;2023-08-31T08:48:01;2.03;;;1.73;;
28335;SDS011;15592;53.656;7.276;2023-08-31T08:50:30;2.20;;;1.73;;
28335;SDS011;15592;53.656;7.276;2023-08-31T08:52:59;1.80;;;1.58;;
28335;SDS011;15592;53.656;7.276;2023-08-31T08:55:28;3.20;;;1.60;;
28335;SDS011;15592;53.656;7.276;2023-08-31T08:58:04;2.08;;;1.20;;
28335;SDS011;15592;53.656;7.276;2023-08-31T09:00:30;5.20;;;1.48;;
28335;SDS011;15592;53.656;7.276;2023-08-31T09:02:57;3.70;;;1.65;;
28335;SDS011;15592;53.656;7.276;2023-08-31T09:05:24;3.88;;;1.77;;
28335;SDS011;15592;53.656;7.276;2023-08-31T09:08:05;3.10;;;1.70;;
28335;SDS011;15592;53.656;7.276;2023-08-31T09:10:37;2.80;;;1.98;;
28335;SDS011;15592;53.656;7.276;2023-08-31T09:13:11;3.95;;;1.70;;
28335;SDS011;15592;53.656;7.276;2023-08-31T09:15:45;2.80;;;1.50;;
28335;SDS011;15592;53.656;7.276;2023-08-31T09:18:13;2.70;;;1.50;;
28335;SDS011;15592;53.656;7.276;2023-08-31T09:20:44;5.75;;;1.50;;
28335;SDS011;15592;53.656;7.276;2023-08-31T09:23:11;3.67;;;1.45;;
28335;SDS011;15592;53.656;7.276;2023-08-31T09:25:40;3.45;;;1.20;;
28335;SDS011;15592;53.656;7.276;2023-08-31T09:28:19;2.65;;;1.10;;
28335;SDS011;15592;53.656;7.276;2023-08-31T09:37:41;4.07;;;1.60;;
28335;SDS011;15592;53.656;7.276;2023-08-31T09:40:07;5.40;;;1.30;;
28335;SDS011;15592;53.656;7.276;2023-08-31T09:42:36;3.15;;;1.10;;
28335;SDS011;15592;53.656;7.276;2023-08-31T09:45:05;4.47;;;1.38;;
28335;SDS011;15592;53.656;7.276;2023-08-31T09:47:31;7.40;;;1.85;;
28335;SDS011;15592;53.656;7.276;2023-08-31T09:49:57;4.25;;;1.25;;
28335;SDS011;15592;53.656;7.276;2023-08-31T09:52:24;1.85;;;1.13;;
28335;SDS011;15592;53.656;7.276;2023-08-31T09:54:51;4.30;;;1.48;;
28335;SDS011;15592;53.656;7.276;2023-08-31T09:57:18;1.80;;;1.13;;
28335;SDS011;15592;53.656;7.276;2023-08-31T09:59:45;1.50;;;0.93;;
28335;SDS011;15592;53.656;7.276;2023-08-31T10:02:11;3.50;;;1.17;;
28335;SDS011;15592;53.656;7.276;2023-08-31T10:04:41;3.90;;;1.48;;
28335;SDS011;15592;53.656;7.276;2023-08-31T10:07:07;3.67;;;1.20;;
28335;SDS011;15592;53.656;7.276;2023-08-31T10:09:39;3.40;;;1.00;;
28335;SDS011;15592;53.656;7.276;2023-08-31T10:12:05;3.33;;;1.13;;
28335;SDS011;15592;53.656;7.276;2023-08-31T10:14:32;2.17;;;1.08;;
28335;SDS011;15592;53.656;7.276;2023-08-31T10:16:58;2.30;;;1.13;;
28335;SDS011;15592;53.656;7.276;2023-08-31T10:19:25;1.38;;;0.75;;
28335;SDS011;15592;53.656;7.276;2023-08-31T10:21:50;1.70;;;0.80;;
28335;SDS011;15592;53.656;7.276;2023-08-31T10:24:16;2.30;;;0.80;;
28335;SDS011;15592;53.656;7.276;2023-08-31T10:26:41;2.10;;;0.90;;
28335;SDS011;15592;53.656;7.276;2023-08-31T10:29:07;1.88;;;0.60;;
28335;SDS011;15592;53.656;7.276;2023-08-31T10:31:52;1.20;;;0.80;;
28335;SDS011;15592;53.656;7.276;2023-08-31T10:34:18;1.75;;;0.90;;
28335;SDS011;15592;53.656;7.276;2023-08-31T10:37:01;1.67;;;0.70;;
28335;SDS011;15592;53.656;7.276;2023-08-31T10:39:28;1.73;;;0.80;;
28335;SDS011;15592;53.656;7.276;2023-08-31T10:42:03;1.65;;;0.80;;
28335;SDS011;15592;53.656;7.276;2023-08-31T10:44:32;1.10;;;0.80;;
28335;SDS011;15592;53.656;7.276;2023-08-31T10:47:02;2.03;;;0.90;;
28335;SDS011;15592;53.656;7.276;2023-08-31T10:49:29;1.30;;;0.80;;
28335;SDS011;15592;53.656;7.276;2023-08-31T10:51:56;0.80;;;0.80;;
28335;SDS011;15592;53.656;7.276;2023-08-31T10:54:39;2.05;;;0.90;;
28335;SDS011;15592;53.656;7.276;2023-08-31T10:57:05;1.27;;;0.80;;
28335;SDS011;15592;53.656;7.276;2023-08-31T11:05:00;3.78;;;1.30;;
28335;SDS011;15592;53.656;7.276;2023-08-31T11:07:29;2.35;;;1.20;;
28335;SDS011;15592;53.656;7.276;2023-08-31T11:10:08;3.08;;;1.40;;
28335;SDS011;15592;53.656;7.276;2023-08-31T11:12:42;8.10;;;1.60;;
28335;SDS011;15592;53.656;7.276;2023-08-31T11:15:10;8.02;;;1.50;;
28335;SDS011;15592;53.656;7.276;2023-08-31T11:17:39;4.03;;;1.50;;
28335;SDS011;15592;53.656;7.276;2023-08-31T11:20:05;2.75;;;1.35;;
28335;SDS011;15592;53.656;7.276;2023-08-31T11:22:41;3.33;;;0.90;;
28335;SDS011;15592;53.656;7.276;2023-08-31T11:25:23;1.35;;;0.85;;
28335;SDS011;15592;53.656;7.276;2023-08-31T11:28:32;1.45;;;0.90;;
28335;SDS011;15592;53.656;7.276;2023-08-31T11:30:39;1.58;;;0.88;;
28335;SDS011;15592;53.656;7.276;2023-08-31T11:33:09;1.73;;;0.93;;
28335;SDS011;15592;53.656;7.276;2023-08-31T11:35:37;1.88;;;1.08;;
28335;SDS011;15592;53.656;7.276;2023-08-31T11:38:05;1.17;;;1.08;;
28335;SDS011;15592;53.656;7.276;2023-08-31T11:40:31;1.67;;;0.77;;
28335;SDS011;15592;53.656;7.276;2023-08-31T11:42:57;1.67;;;0.93;;
28335;SDS011;15592;53.656;7.276;2023-08-31T11:45:25;2.47;;;1.00;;
28335;SDS011;15592;53.656;7.276;2023-08-31T11:47:52;1.50;;;0.88;;
28335;SDS011;15592;53.656;7.276;2023-08-31T11:50:18;3.47;;;1.02;;
28335;SDS011;15592;53.656;7.276;2023-08-31T11:52:45;1.42;;;1.13;;
28335;SDS011;15592;53.656;7.276;2023-08-31T11:55:12;8.38;;;2.13;;
28335;SDS011;15592;53.656;7.276;2023-08-31T11:57:39;5.63;;;1.80;;
28335;SDS011;15592;53.656;7.276;2023-08-31T12:00:05;3.58;;;1.52;;
28335;SDS011;15592;53.656;7.276;2023-08-31T12:02:34;7.82;;;2.15;;
28335;SDS011;15592;53.656;7.276;2023-08-31T12:05:01;4.25;;;1.75;;
28335;SDS011;15592;53.656;7.276;2023-08-31T12:07:26;8.10;;;1.83;;
28335;SDS011;15592;53.656;7.276;2023-08-31T12:09:52;5.47;;;1.70;;
28335;SDS011;15592;53.656;7.276;2023-08-31T12:12:21;10.85;;;2.08;;
28335;SDS011;15592;53.656;7.276;2023-08-31T12:14:46;7.50;;;2.00;;
28335;SDS011;15592;53.656;7.276;2023-08-31T12:17:12;9.77;;;2.38;;
28335;SDS011;15592;53.656;7.276;2023-08-31T12:19:38;7.80;;;2.22;;
28335;SDS011;15592;53.656;7.276;2023-08-31T12:22:04;4.68;;;2.25;;
28335;SDS011;15592;53.656;7.276;2023-08-31T12:24:38;7.45;;;2.83;;
28335;SDS011;15592;53.656;7.276;2023-08-31T12:27:08;4.22;;;2.10;;
28335;SDS011;15592;53.656;7.276;2023-08-31T12:29:34;4.93;;;2.40;;
28335;SDS011;15592;53.656;7.276;2023-08-31T12:32:00;5.70;;;2.00;;
28335;SDS011;15592;53.656;7.276;2023-08-31T12:34:26;10.90;;;2.10;;
28335;SDS011;15592;53.656;7.276;2023-08-31T12:36:52;4.70;;;1.85;;
28335;SDS011;15592;53.656;7.276;2023-08-31T12:39:19;5.00;;;1.92;;
28335;SDS011;15592;53.656;7.276;2023-08-31T12:41:45;4.28;;;1.92;;
28335;SDS011;15592;53.656;7.276;2023-08-31T12:44:11;4.78;;;2.15;;
28335;SDS011;15592;53.656;7.276;2023-08-31T12:46:37;3.88;;;2.10;;
28335;SDS011;15592;53.656;7.276;2023-08-31T12:49:04;6.13;;;1.85;;
28335;SDS011;15592;53.656;7.276;2023-08-31T12:51:30;6.18;;;1.52;;
28335;SDS011;15592;53.656;7.276;2023-08-31T12:53:56;3.78;;;2.03;;
28335;SDS011;15592;53.656;7.276;2023-08-31T12:56:22;6.75;;;2.22;;
28335;SDS011;15592;53.656;7.276;2023-08-31T12:58:49;4.03;;;1.60;;
28335;SDS011;15592;53.656;7.276;2023-08-31T13:01:24;4.93;;;1.88;;
28335;SDS011;15592;53.656;7.276;2023-08-31T13:03:51;5.50;;;2.63;;
28335;SDS011;15592;53.656;7.276;2023-08-31T13:06:17;5.35;;;2.25;;
28335;SDS011;15592;53.656;7.276;2023-08-31T13:08:46;6.65;;;1.98;;
28335;SDS011;15592;53.656;7.276;2023-08-31T13:11:11;4.13;;;2.05;;
28335;SDS011;15592;53.656;7.276;2023-08-31T13:13:37;4.30;;;2.08;;
28335;SDS011;15592;53.656;7.276;2023-08-31T13:16:06;2.95;;;1.75;;
28335;SDS011;15592;53.656;7.276;2023-08-31T13:18:32;7.88;;;2.10;;
28335;SDS011;15592;53.656;7.276;2023-08-31T13:20:58;5.95;;;1.90;;
28335;SDS011;15592;53.656;7.276;2023-08-31T13:23:23;4.53;;;2.00;;
28335;SDS011;15592;53.656;7.276;2023-08-31T13:25:49;3.28;;;1.70;;
28335;SDS011;15592;53.656;7.276;2023-08-31T13:28:16;3.17;;;1.55;;
28335;SDS011;15592;53.656;7.276;2023-08-31T13:30:41;8.23;;;2.00;;
28335;SDS011;15592;53.656;7.276;2023-08-31T13:33:10;5.70;;;1.85;;
28335;SDS011;15592;53.656;7.276;2023-08-31T13:35:35;3.65;;;2.05;;
28335;SDS011;15592;53.656;7.276;2023-08-31T13:38:01;5.90;;;1.95;;
28335;SDS011;15592;53.656;7.276;2023-08-31T13:40:30;5.45;;;1.80;;
28335;SDS011;15592;53.656;7.276;2023-08-31T13:43:02;4.15;;;1.85;;
28335;SDS011;15592;53.656;7.276;2023-08-31T13:45:28;7.63;;;1.95;;
28335;SDS011;15592;53.656;7.276;2023-08-31T13:47:55;3.40;;;1.92;;
28335;SDS011;15592;53.656;7.276;2023-08-31T13:50:21;6.03;;;2.40;;
28335;SDS011;15592;53.656;7.276;2023-08-31T13:55:53;5.93;;;1.80;;
28335;SDS011;15592;53.656;7.276;2023-08-31T13:58:19;4.25;;;1.73;;
28335;SDS011;15592;53.656;7.276;2023-08-31T14:03:47;5.55;;;1.90;;
28335;SDS011;15592;53.656;7.276;2023-08-31T14:06:26;2.88;;;1.30;;
28335;SDS011;15592;53.656;7.276;2023-08-31T14:08:51;3.85;;;1.40;;
28335;SDS011;15592;53.656;7.276;2023-08-31T14:11:19;2.75;;;1.50;;
28335;SDS011;15592;53.656;7.276;2023-08-31T14:13:45;6.38;;;2.00;;
28335;SDS011;15592;53.656;7.276;2023-08-31T14:16:11;3.85;;;2.00;;
28335;SDS011;15592;53.656;7.276;2023-08-31T14:18:37;4.32;;;1.67;;
28335;SDS011;15592;53.656;7.276;2023-08-31T14:21:03;5.80;;;1.90;;
28335;SDS011;15592;53.656;7.276;2023-08-31T14:23:29;4.85;;;1.77;;
28335;SDS011;15592;53.656;7.276;2023-08-31T14:26:00;8.98;;;2.05;;
28335;SDS011;15592;53.656;7.276;2023-08-31T14:28:28;3.63;;;1.83;;
28335;SDS011;15592;53.656;7.276;2023-08-31T14:30:53;5.53;;;1.90;;
28335;SDS011;15592;53.656;7.276;2023-08-31T14:33:19;2.95;;;1.30;;
28335;SDS011;15592;53.656;7.276;2023-08-31T14:35:49;2.50;;;1.17;;
28335;SDS011;15592;53.656;7.276;2023-08-31T14:45:01;3.88;;;1.45;;
28335;SDS011;15592;53.656;7.276;2023-08-31T14:50:44;2.92;;;1.60;;
28335;SDS011;15592;53.656;7.276;2023-08-31T14:53:39;4.40;;;1.88;;
28335;SDS011;15592;53.656;7.276;2023-08-31T14:56:09;5.13;;;1.73;;
28335;SDS011;15592;53.656;7.276;2023-08-31T14:58:40;2.60;;;1.50;;
28335;SDS011;15592;53.656;7.276;2023-08-31T15:01:11;2.63;;;1.35;;
28335;SDS011;15592;53.656;7.276;2023-08-31T15:03:50;2.65;;;1.40;;
28335;SDS011;15592;53.656;7.276;2023-08-31T15:06:15;3.30;;;1.70;;
28335;SDS011;15592;53.656;7.276;2023-08-31T15:08:41;2.78;;;1.52;;
28335;SDS011;15592;53.656;7.276;2023-08-31T15:11:07;4.57;;;1.90;;
28335;SDS011;15592;53.656;7.276;2023-08-31T15:13:33;2.92;;;1.52;;
28335;SDS011;15592;53.656;7.276;2023-08-31T15:16:38;2.00;;;1.45;;
28335;SDS011;15592;53.656;7.276;2023-08-31T15:19:03;3.55;;;1.30;;
28335;SDS011;15592;53.656;7.276;2023-08-31T15:21:34;4.45;;;1.45;;
28335;SDS011;15592;53.656;7.276;2023-08-31T15:24:00;3.17;;;1.58;;
28335;SDS011;15592;53.656;7.276;2023-08-31T15:26:27;3.55;;;1.50;;
28335;SDS011;15592;53.656;7.276;2023-08-31T15:28:56;4.88;;;1.50;;
28335;SDS011;15592;53.656;7.276;2023-08-31T15:31:29;3.95;;;1.48;;
28335;SDS011;15592;53.656;7.276;2023-08-31T15:37:07;4.25;;;1.63;;